sensor_id;sensor_type;location;lat;lon;timestamp;P1;durP1;ratioP1;P2;durP2;ratioP2
13571;SDS011;6857;53.484;10.216;2023-06-22T00:00:27;3.80;;;3.40;;
13571;SDS011;6857;53.484;10.216;2023-06-22T00:02:53;3.90;;;2.97;;
13571;SDS011;6857;53.484;10.216;2023-06-22T00:05:19;3.63;;;3.33;;
13571;SDS011;6857;53.484;10.216;2023-06-22T00:07:45;3.60;;;3.30;;
13571;SDS011;6857;53.484;10.216;2023-06-22T00:10:11;5.83;;;3.90;;
13571;SDS011;6857;53.484;10.216;2023-06-22T00:12:37;4.33;;;3.60;;
13571;SDS011;6857;53.484;10.216;2023-06-22T00:15:03;4.33;;;3.47;;
13571;SDS011;6857;53.484;10.216;2023-06-22T00:17:29;5.33;;;3.70;;
13571;SDS011;6857;53.484;10.216;2023-06-22T00:19:55;3.77;;;3.47;;
13571;SDS011;6857;53.484;10.216;2023-06-22T00:22:23;4.43;;;4.03;;
13571;SDS011;6857;53.484;10.216;2023-06-22T00:24:53;5.13;;;3.53;;
13571;SDS011;6857;53.484;10.216;2023-06-22T00:27:18;4.03;;;3.60;;
13571;SDS011;6857;53.484;10.216;2023-06-22T00:29:44;4.23;;;3.83;;
13571;SDS011;6857;53.484;10.216;2023-06-22T00:32:10;5.50;;;3.60;;
13571;SDS011;6857;53.484;10.216;2023-06-22T00:34:36;6.00;;;3.93;;
13571;SDS011;6857;53.484;10.216;2023-06-22T00:37:02;4.10;;;3.67;;
13571;SDS011;6857;53.484;10.216;2023-06-22T00:39:28;4.77;;;3.80;;
13571;SDS011;6857;53.484;10.216;2023-06-22T00:41:54;4.80;;;3.90;;
13571;SDS011;6857;53.484;10.216;2023-06-22T00:44:20;4.83;;;3.70;;
13571;SDS011;6857;53.484;10.216;2023-06-22T00:46:46;4.10;;;3.60;;
13571;SDS011;6857;53.484;10.216;2023-06-22T00:49:12;5.60;;;4.23;;
13571;SDS011;6857;53.484;10.216;2023-06-22T00:51:38;5.53;;;3.90;;
13571;SDS011;6857;53.484;10.216;2023-06-22T00:54:12;6.57;;;3.97;;
13571;SDS011;6857;53.484;10.216;2023-06-22T00:56:39;6.03;;;3.80;;
13571;SDS011;6857;53.484;10.216;2023-06-22T00:59:05;5.90;;;4.27;;
13571;SDS011;6857;53.484;10.216;2023-06-22T01:01:31;4.97;;;4.37;;
13571;SDS011;6857;53.484;10.216;2023-06-22T01:03:59;8.70;;;4.80;;
13571;SDS011;6857;53.484;10.216;2023-06-22T01:06:29;4.73;;;3.90;;
13571;SDS011;6857;53.484;10.216;2023-06-22T01:09:08;5.97;;;4.50;;
13571;SDS011;6857;53.484;10.216;2023-06-22T01:11:41;6.17;;;4.37;;
13571;SDS011;6857;53.484;10.216;2023-06-22T01:14:34;5.10;;;4.60;;
13571;SDS011;6857;53.484;10.216;2023-06-22T01:16:56;4.97;;;4.43;;
13571;SDS011;6857;53.484;10.216;2023-06-22T01:21:57;4.97;;;4.43;;
13571;SDS011;6857;53.484;10.216;2023-06-22T01:24:30;5.97;;;4.53;;
13571;SDS011;6857;53.484;10.216;2023-06-22T01:29:47;5.70;;;4.63;;
13571;SDS011;6857;53.484;10.216;2023-06-22T01:32:13;5.03;;;4.50;;
13571;SDS011;6857;53.484;10.216;2023-06-22T01:34:40;5.73;;;4.63;;
13571;SDS011;6857;53.484;10.216;2023-06-22T01:37:06;6.60;;;4.63;;
13571;SDS011;6857;53.484;10.216;2023-06-22T01:39:33;6.37;;;4.67;;
13571;SDS011;6857;53.484;10.216;2023-06-22T01:41:59;5.80;;;4.37;;
13571;SDS011;6857;53.484;10.216;2023-06-22T01:44:26;4.30;;;3.90;;
13571;SDS011;6857;53.484;10.216;2023-06-22T01:46:52;4.63;;;4.23;;
13571;SDS011;6857;53.484;10.216;2023-06-22T01:49:18;5.80;;;4.40;;
13571;SDS011;6857;53.484;10.216;2023-06-22T01:51:44;5.00;;;4.47;;
13571;SDS011;6857;53.484;10.216;2023-06-22T01:54:10;4.97;;;4.30;;
13571;SDS011;6857;53.484;10.216;2023-06-22T01:56:36;5.80;;;4.40;;
13571;SDS011;6857;53.484;10.216;2023-06-22T02:01:33;5.17;;;4.30;;
13571;SDS011;6857;53.484;10.216;2023-06-22T02:04:06;4.67;;;4.20;;
13571;SDS011;6857;53.484;10.216;2023-06-22T02:06:37;5.87;;;4.13;;
13571;SDS011;6857;53.484;10.216;2023-06-22T02:09:08;5.20;;;4.33;;
13571;SDS011;6857;53.484;10.216;2023-06-22T02:11:35;7.27;;;4.33;;
13571;SDS011;6857;53.484;10.216;2023-06-22T02:14:02;4.30;;;3.87;;
13571;SDS011;6857;53.484;10.216;2023-06-22T02:16:28;4.43;;;4.03;;
13571;SDS011;6857;53.484;10.216;2023-06-22T02:18:57;5.67;;;4.40;;
13571;SDS011;6857;53.484;10.216;2023-06-22T02:21:28;5.00;;;4.50;;
13571;SDS011;6857;53.484;10.216;2023-06-22T02:23:54;5.20;;;4.10;;
13571;SDS011;6857;53.484;10.216;2023-06-22T02:26:20;5.80;;;4.53;;
13571;SDS011;6857;53.484;10.216;2023-06-22T02:28:46;4.83;;;4.20;;
13571;SDS011;6857;53.484;10.216;2023-06-22T02:31:12;7.27;;;4.97;;
13571;SDS011;6857;53.484;10.216;2023-06-22T02:33:38;5.30;;;4.10;;
13571;SDS011;6857;53.484;10.216;2023-06-22T02:36:04;8.23;;;7.27;;
13571;SDS011;6857;53.484;10.216;2023-06-22T02:38:30;9.57;;;7.80;;
13571;SDS011;6857;53.484;10.216;2023-06-22T02:40:59;7.73;;;5.93;;
13571;SDS011;6857;53.484;10.216;2023-06-22T02:43:26;7.57;;;6.77;;
13571;SDS011;6857;53.484;10.216;2023-06-22T02:45:52;7.87;;;4.90;;
13571;SDS011;6857;53.484;10.216;2023-06-22T02:48:18;6.67;;;5.93;;
13571;SDS011;6857;53.484;10.216;2023-06-22T02:50:44;8.17;;;4.50;;
13571;SDS011;6857;53.484;10.216;2023-06-22T02:53:10;6.03;;;4.47;;
13571;SDS011;6857;53.484;10.216;2023-06-22T02:55:36;4.93;;;4.43;;
13571;SDS011;6857;53.484;10.216;2023-06-22T02:58:02;4.77;;;4.20;;
13571;SDS011;6857;53.484;10.216;2023-06-22T03:00:30;5.27;;;4.43;;
13571;SDS011;6857;53.484;10.216;2023-06-22T03:02:56;5.00;;;4.27;;
13571;SDS011;6857;53.484;10.216;2023-06-22T03:05:22;5.20;;;4.70;;
13571;SDS011;6857;53.484;10.216;2023-06-22T03:07:48;9.80;;;4.43;;
13571;SDS011;6857;53.484;10.216;2023-06-22T03:10:15;5.97;;;3.93;;
13571;SDS011;6857;53.484;10.216;2023-06-22T03:12:41;4.93;;;4.20;;
13571;SDS011;6857;53.484;10.216;2023-06-22T03:15:08;4.90;;;4.20;;
13571;SDS011;6857;53.484;10.216;2023-06-22T03:17:35;4.50;;;4.10;;
13571;SDS011;6857;53.484;10.216;2023-06-22T03:20:03;5.33;;;4.53;;
13571;SDS011;6857;53.484;10.216;2023-06-22T03:22:34;13.23;;;8.97;;
13571;SDS011;6857;53.484;10.216;2023-06-22T03:25:00;5.57;;;4.27;;
13571;SDS011;6857;53.484;10.216;2023-06-22T03:27:26;5.27;;;4.20;;
13571;SDS011;6857;53.484;10.216;2023-06-22T03:29:52;5.80;;;4.60;;
13571;SDS011;6857;53.484;10.216;2023-06-22T03:32:18;5.00;;;4.33;;
13571;SDS011;6857;53.484;10.216;2023-06-22T03:34:44;4.73;;;4.30;;
13571;SDS011;6857;53.484;10.216;2023-06-22T03:37:13;4.90;;;4.20;;
13571;SDS011;6857;53.484;10.216;2023-06-22T03:39:40;5.17;;;4.20;;
13571;SDS011;6857;53.484;10.216;2023-06-22T03:42:06;6.53;;;4.77;;
13571;SDS011;6857;53.484;10.216;2023-06-22T03:44:33;6.97;;;4.73;;
13571;SDS011;6857;53.484;10.216;2023-06-22T03:47:00;5.33;;;4.37;;
13571;SDS011;6857;53.484;10.216;2023-06-22T03:49:27;6.67;;;4.00;;
13571;SDS011;6857;53.484;10.216;2023-06-22T03:51:53;7.27;;;4.27;;
13571;SDS011;6857;53.484;10.216;2023-06-22T03:54:19;6.23;;;4.60;;
13571;SDS011;6857;53.484;10.216;2023-06-22T03:56:45;8.03;;;4.40;;
13571;SDS011;6857;53.484;10.216;2023-06-22T03:59:10;6.43;;;4.43;;
13571;SDS011;6857;53.484;10.216;2023-06-22T04:01:36;5.13;;;4.60;;
13571;SDS011;6857;53.484;10.216;2023-06-22T04:04:02;7.87;;;5.60;;
13571;SDS011;6857;53.484;10.216;2023-06-22T04:06:28;6.77;;;4.97;;
13571;SDS011;6857;53.484;10.216;2023-06-22T04:08:54;9.97;;;7.67;;
13571;SDS011;6857;53.484;10.216;2023-06-22T04:11:20;9.13;;;5.53;;
13571;SDS011;6857;53.484;10.216;2023-06-22T04:13:46;7.67;;;5.27;;
13571;SDS011;6857;53.484;10.216;2023-06-22T04:16:13;7.73;;;4.70;;
13571;SDS011;6857;53.484;10.216;2023-06-22T04:18:39;11.20;;;9.00;;
13571;SDS011;6857;53.484;10.216;2023-06-22T04:21:06;7.77;;;6.20;;
13571;SDS011;6857;53.484;10.216;2023-06-22T04:23:32;5.67;;;5.00;;
13571;SDS011;6857;53.484;10.216;2023-06-22T04:25:58;8.97;;;5.90;;
13571;SDS011;6857;53.484;10.216;2023-06-22T04:28:24;6.13;;;5.40;;
13571;SDS011;6857;53.484;10.216;2023-06-22T04:30:50;6.63;;;6.00;;
13571;SDS011;6857;53.484;10.216;2023-06-22T04:33:16;7.67;;;5.47;;
13571;SDS011;6857;53.484;10.216;2023-06-22T04:35:44;11.90;;;10.27;;
13571;SDS011;6857;53.484;10.216;2023-06-22T04:38:11;8.20;;;6.33;;
13571;SDS011;6857;53.484;10.216;2023-06-22T04:40:38;5.60;;;4.40;;
13571;SDS011;6857;53.484;10.216;2023-06-22T04:43:04;6.73;;;4.33;;
13571;SDS011;6857;53.484;10.216;2023-06-22T04:45:31;7.80;;;4.43;;
13571;SDS011;6857;53.484;10.216;2023-06-22T04:47:57;4.70;;;4.00;;
13571;SDS011;6857;53.484;10.216;2023-06-22T04:50:23;6.47;;;4.37;;
13571;SDS011;6857;53.484;10.216;2023-06-22T04:52:50;6.50;;;4.23;;
13571;SDS011;6857;53.484;10.216;2023-06-22T04:55:16;8.37;;;4.80;;
13571;SDS011;6857;53.484;10.216;2023-06-22T04:57:44;7.50;;;6.37;;
13571;SDS011;6857;53.484;10.216;2023-06-22T05:00:14;6.10;;;4.13;;
13571;SDS011;6857;53.484;10.216;2023-06-22T05:02:42;6.30;;;4.30;;
13571;SDS011;6857;53.484;10.216;2023-06-22T05:05:08;8.20;;;5.50;;
13571;SDS011;6857;53.484;10.216;2023-06-22T05:07:38;8.93;;;5.13;;
13571;SDS011;6857;53.484;10.216;2023-06-22T05:10:07;7.17;;;5.60;;
13571;SDS011;6857;53.484;10.216;2023-06-22T05:12:33;6.70;;;5.40;;
13571;SDS011;6857;53.484;10.216;2023-06-22T05:14:59;12.00;;;6.47;;
13571;SDS011;6857;53.484;10.216;2023-06-22T05:17:26;7.27;;;5.60;;
13571;SDS011;6857;53.484;10.216;2023-06-22T05:19:52;7.67;;;4.80;;
13571;SDS011;6857;53.484;10.216;2023-06-22T05:22:18;5.83;;;5.23;;
13571;SDS011;6857;53.484;10.216;2023-06-22T05:24:45;5.33;;;4.63;;
13571;SDS011;6857;53.484;10.216;2023-06-22T05:27:11;5.70;;;5.10;;
13571;SDS011;6857;53.484;10.216;2023-06-22T05:29:37;6.87;;;5.33;;
13571;SDS011;6857;53.484;10.216;2023-06-22T05:32:04;8.10;;;5.00;;
13571;SDS011;6857;53.484;10.216;2023-06-22T05:34:31;8.67;;;5.33;;
13571;SDS011;6857;53.484;10.216;2023-06-22T05:36:57;8.30;;;5.27;;
13571;SDS011;6857;53.484;10.216;2023-06-22T05:39:26;6.47;;;4.90;;
13571;SDS011;6857;53.484;10.216;2023-06-22T05:41:52;5.07;;;4.23;;
13571;SDS011;6857;53.484;10.216;2023-06-22T05:44:18;7.70;;;4.50;;
13571;SDS011;6857;53.484;10.216;2023-06-22T05:46:44;6.50;;;4.27;;
13571;SDS011;6857;53.484;10.216;2023-06-22T05:49:12;4.80;;;3.77;;
13571;SDS011;6857;53.484;10.216;2023-06-22T05:51:38;5.13;;;3.90;;
13571;SDS011;6857;53.484;10.216;2023-06-22T05:54:04;5.10;;;4.20;;
13571;SDS011;6857;53.484;10.216;2023-06-22T05:56:30;5.77;;;4.10;;
13571;SDS011;6857;53.484;10.216;2023-06-22T05:58:56;5.07;;;4.20;;
13571;SDS011;6857;53.484;10.216;2023-06-22T06:01:22;5.00;;;3.90;;
13571;SDS011;6857;53.484;10.216;2023-06-22T06:03:50;5.10;;;3.67;;
13571;SDS011;6857;53.484;10.216;2023-06-22T06:06:17;4.80;;;4.00;;
13571;SDS011;6857;53.484;10.216;2023-06-22T06:08:46;5.37;;;3.70;;
13571;SDS011;6857;53.484;10.216;2023-06-22T06:11:12;5.23;;;3.33;;
13571;SDS011;6857;53.484;10.216;2023-06-22T06:13:38;4.80;;;3.33;;
13571;SDS011;6857;53.484;10.216;2023-06-22T06:16:04;4.53;;;3.87;;
13571;SDS011;6857;53.484;10.216;2023-06-22T06:18:30;4.07;;;3.47;;
13571;SDS011;6857;53.484;10.216;2023-06-22T06:20:56;4.23;;;3.70;;
13571;SDS011;6857;53.484;10.216;2023-06-22T06:23:22;4.70;;;3.40;;
13571;SDS011;6857;53.484;10.216;2023-06-22T06:25:48;5.30;;;3.73;;
13571;SDS011;6857;53.484;10.216;2023-06-22T06:28:14;4.03;;;3.47;;
13571;SDS011;6857;53.484;10.216;2023-06-22T06:30:40;4.97;;;3.27;;
13571;SDS011;6857;53.484;10.216;2023-06-22T06:33:06;3.37;;;3.07;;
13571;SDS011;6857;53.484;10.216;2023-06-22T06:35:33;4.67;;;3.40;;
13571;SDS011;6857;53.484;10.216;2023-06-22T06:38:00;9.63;;;3.40;;
13571;SDS011;6857;53.484;10.216;2023-06-22T06:40:27;5.00;;;3.47;;
13571;SDS011;6857;53.484;10.216;2023-06-22T06:42:53;4.43;;;3.70;;
13571;SDS011;6857;53.484;10.216;2023-06-22T06:45:19;4.57;;;3.50;;
13571;SDS011;6857;53.484;10.216;2023-06-22T06:47:47;5.73;;;3.13;;
13571;SDS011;6857;53.484;10.216;2023-06-22T06:50:14;4.88;;;3.42;;
13571;SDS011;6857;53.484;10.216;2023-06-22T06:52:40;4.38;;;3.28;;
13571;SDS011;6857;53.484;10.216;2023-06-22T06:55:07;4.47;;;2.90;;
13571;SDS011;6857;53.484;10.216;2023-06-22T06:57:36;3.08;;;2.78;;
13571;SDS011;6857;53.484;10.216;2023-06-22T07:00:02;5.72;;;3.00;;
13571;SDS011;6857;53.484;10.216;2023-06-22T07:02:34;3.35;;;2.95;;
13571;SDS011;6857;53.484;10.216;2023-06-22T07:05:00;6.40;;;4.60;;
13571;SDS011;6857;53.484;10.216;2023-06-22T07:07:29;6.22;;;4.50;;
13571;SDS011;6857;53.484;10.216;2023-06-22T07:09:55;6.25;;;4.47;;
13571;SDS011;6857;53.484;10.216;2023-06-22T07:12:21;4.22;;;2.95;;
13571;SDS011;6857;53.484;10.216;2023-06-22T07:14:47;3.45;;;2.83;;
13571;SDS011;6857;53.484;10.216;2023-06-22T07:17:13;5.22;;;2.88;;
13571;SDS011;6857;53.484;10.216;2023-06-22T07:19:39;4.50;;;4.10;;
13571;SDS011;6857;53.484;10.216;2023-06-22T07:22:05;5.28;;;3.95;;
13571;SDS011;6857;53.484;10.216;2023-06-22T07:24:31;4.10;;;2.85;;
13571;SDS011;6857;53.484;10.216;2023-06-22T07:26:57;3.10;;;2.80;;
13571;SDS011;6857;53.484;10.216;2023-06-22T07:29:24;4.05;;;2.70;;
13571;SDS011;6857;53.484;10.216;2023-06-22T07:31:51;3.97;;;3.22;;
13571;SDS011;6857;53.484;10.216;2023-06-22T07:34:17;4.05;;;2.70;;
13571;SDS011;6857;53.484;10.216;2023-06-22T07:36:43;4.93;;;3.20;;
13571;SDS011;6857;53.484;10.216;2023-06-22T07:39:09;3.28;;;2.97;;
13571;SDS011;6857;53.484;10.216;2023-06-22T07:41:36;4.03;;;3.45;;
13571;SDS011;6857;53.484;10.216;2023-06-22T07:44:02;6.55;;;3.17;;
13571;SDS011;6857;53.484;10.216;2023-06-22T07:46:29;2.95;;;2.67;;
13571;SDS011;6857;53.484;10.216;2023-06-22T07:48:55;5.15;;;4.10;;
13571;SDS011;6857;53.484;10.216;2023-06-22T07:51:21;5.47;;;3.58;;
13571;SDS011;6857;53.484;10.216;2023-06-22T07:53:47;5.35;;;3.90;;
13571;SDS011;6857;53.484;10.216;2023-06-22T07:56:13;4.38;;;3.20;;
13571;SDS011;6857;53.484;10.216;2023-06-22T07:58:43;6.18;;;3.60;;
13571;SDS011;6857;53.484;10.216;2023-06-22T08:01:09;5.20;;;4.70;;
13571;SDS011;6857;53.484;10.216;2023-06-22T08:03:36;6.45;;;3.88;;
13571;SDS011;6857;53.484;10.216;2023-06-22T08:06:02;6.93;;;5.15;;
13571;SDS011;6857;53.484;10.216;2023-06-22T08:08:28;6.22;;;3.25;;
13571;SDS011;6857;53.484;10.216;2023-06-22T08:10:54;5.25;;;3.50;;
13571;SDS011;6857;53.484;10.216;2023-06-22T08:13:20;3.83;;;3.13;;
13571;SDS011;6857;53.484;10.216;2023-06-22T08:15:46;4.47;;;3.25;;
13571;SDS011;6857;53.484;10.216;2023-06-22T08:18:12;5.43;;;3.10;;
13571;SDS011;6857;53.484;10.216;2023-06-22T08:20:38;8.40;;;3.42;;
13571;SDS011;6857;53.484;10.216;2023-06-22T08:23:04;4.45;;;3.00;;
13571;SDS011;6857;53.484;10.216;2023-06-22T08:25:31;2.97;;;2.60;;
13571;SDS011;6857;53.484;10.216;2023-06-22T08:27:57;3.10;;;2.80;;
13571;SDS011;6857;53.484;10.216;2023-06-22T08:30:23;4.07;;;2.97;;
13571;SDS011;6857;53.484;10.216;2023-06-22T08:32:49;4.05;;;2.58;;
13571;SDS011;6857;53.484;10.216;2023-06-22T08:35:15;5.72;;;3.50;;
13571;SDS011;6857;53.484;10.216;2023-06-22T08:37:41;4.07;;;2.40;;
13571;SDS011;6857;53.484;10.216;2023-06-22T08:40:10;3.97;;;2.33;;
13571;SDS011;6857;53.484;10.216;2023-06-22T08:42:43;4.90;;;3.20;;
13571;SDS011;6857;53.484;10.216;2023-06-22T08:45:10;5.28;;;3.00;;
13571;SDS011;6857;53.484;10.216;2023-06-22T08:47:37;3.38;;;2.80;;
13571;SDS011;6857;53.484;10.216;2023-06-22T08:50:03;3.22;;;2.70;;
13571;SDS011;6857;53.484;10.216;2023-06-22T08:52:29;3.50;;;3.03;;
13571;SDS011;6857;53.484;10.216;2023-06-22T08:54:55;3.17;;;2.72;;
13571;SDS011;6857;53.484;10.216;2023-06-22T08:57:23;3.53;;;2.83;;
13571;SDS011;6857;53.484;10.216;2023-06-22T08:59:49;5.18;;;2.53;;
13571;SDS011;6857;53.484;10.216;2023-06-22T09:02:17;4.70;;;2.40;;
13571;SDS011;6857;53.484;10.216;2023-06-22T09:04:44;4.78;;;3.17;;
13571;SDS011;6857;53.484;10.216;2023-06-22T09:07:10;3.53;;;2.88;;
13571;SDS011;6857;53.484;10.216;2023-06-22T09:09:36;4.50;;;3.17;;
13571;SDS011;6857;53.484;10.216;2023-06-22T09:12:02;4.45;;;3.20;;
13571;SDS011;6857;53.484;10.216;2023-06-22T09:14:28;3.90;;;2.63;;
13571;SDS011;6857;53.484;10.216;2023-06-22T09:16:54;4.10;;;2.53;;
13571;SDS011;6857;53.484;10.216;2023-06-22T09:19:20;3.42;;;2.88;;
13571;SDS011;6857;53.484;10.216;2023-06-22T09:21:46;4.60;;;2.72;;
13571;SDS011;6857;53.484;10.216;2023-06-22T09:24:12;3.80;;;3.03;;
13571;SDS011;6857;53.484;10.216;2023-06-22T09:26:38;3.85;;;3.08;;
13571;SDS011;6857;53.484;10.216;2023-06-22T09:29:04;4.80;;;3.38;;
13571;SDS011;6857;53.484;10.216;2023-06-22T09:31:31;5.25;;;4.03;;
13571;SDS011;6857;53.484;10.216;2023-06-22T09:33:57;4.05;;;3.58;;
13571;SDS011;6857;53.484;10.216;2023-06-22T09:36:23;4.82;;;3.30;;
13571;SDS011;6857;53.484;10.216;2023-06-22T09:38:49;3.00;;;2.70;;
13571;SDS011;6857;53.484;10.216;2023-06-22T09:41:23;4.05;;;3.17;;
13571;SDS011;6857;53.484;10.216;2023-06-22T09:43:49;4.32;;;2.90;;
13571;SDS011;6857;53.484;10.216;2023-06-22T09:46:16;4.10;;;2.90;;
13571;SDS011;6857;53.484;10.216;2023-06-22T09:48:42;3.35;;;2.80;;
13571;SDS011;6857;53.484;10.216;2023-06-22T09:51:08;4.38;;;3.03;;
13571;SDS011;6857;53.484;10.216;2023-06-22T09:53:34;4.30;;;3.30;;
13571;SDS011;6857;53.484;10.216;2023-06-22T09:56:01;4.85;;;3.30;;
13571;SDS011;6857;53.484;10.216;2023-06-22T09:58:27;6.65;;;3.03;;
13571;SDS011;6857;53.484;10.216;2023-06-22T10:00:53;3.80;;;2.92;;
13571;SDS011;6857;53.484;10.216;2023-06-22T10:03:19;4.15;;;3.45;;
13571;SDS011;6857;53.484;10.216;2023-06-22T10:05:45;4.60;;;3.20;;
13571;SDS011;6857;53.484;10.216;2023-06-22T10:08:11;4.57;;;3.47;;
13571;SDS011;6857;53.484;10.216;2023-06-22T10:10:37;3.63;;;2.90;;
13571;SDS011;6857;53.484;10.216;2023-06-22T10:13:07;5.50;;;4.05;;
13571;SDS011;6857;53.484;10.216;2023-06-22T10:15:35;4.20;;;3.05;;
13571;SDS011;6857;53.484;10.216;2023-06-22T10:18:01;4.57;;;3.10;;
13571;SDS011;6857;53.484;10.216;2023-06-22T10:20:27;9.57;;;3.88;;
13571;SDS011;6857;53.484;10.216;2023-06-22T10:22:53;4.10;;;2.95;;
13571;SDS011;6857;53.484;10.216;2023-06-22T10:25:19;4.00;;;3.00;;
13571;SDS011;6857;53.484;10.216;2023-06-22T10:27:45;3.58;;;2.92;;
13571;SDS011;6857;53.484;10.216;2023-06-22T10:30:11;4.70;;;3.20;;
13571;SDS011;6857;53.484;10.216;2023-06-22T10:32:38;3.75;;;3.22;;
13571;SDS011;6857;53.484;10.216;2023-06-22T10:35:04;4.85;;;3.83;;
13571;SDS011;6857;53.484;10.216;2023-06-22T10:37:30;3.97;;;3.58;;
13571;SDS011;6857;53.484;10.216;2023-06-22T10:39:56;4.78;;;3.95;;
13571;SDS011;6857;53.484;10.216;2023-06-22T10:42:22;3.45;;;2.92;;
13571;SDS011;6857;53.484;10.216;2023-06-22T10:44:48;4.25;;;3.85;;
13571;SDS011;6857;53.484;10.216;2023-06-22T10:47:14;6.18;;;3.30;;
13571;SDS011;6857;53.484;10.216;2023-06-22T10:49:40;17.00;;;7.80;;
13571;SDS011;6857;53.484;10.216;2023-06-22T10:52:07;4.07;;;3.55;;
13571;SDS011;6857;53.484;10.216;2023-06-22T10:54:33;4.28;;;3.28;;
13571;SDS011;6857;53.484;10.216;2023-06-22T10:57:00;4.40;;;3.45;;
13571;SDS011;6857;53.484;10.216;2023-06-22T10:59:26;4.50;;;3.30;;
13571;SDS011;6857;53.484;10.216;2023-06-22T11:01:52;4.80;;;3.45;;
13571;SDS011;6857;53.484;10.216;2023-06-22T11:04:18;5.50;;;4.90;;
13571;SDS011;6857;53.484;10.216;2023-06-22T11:06:44;4.38;;;3.95;;
13571;SDS011;6857;53.484;10.216;2023-06-22T11:09:10;7.15;;;5.65;;
13571;SDS011;6857;53.484;10.216;2023-06-22T11:11:36;7.25;;;4.63;;
13571;SDS011;6857;53.484;10.216;2023-06-22T11:14:02;4.40;;;3.90;;
13571;SDS011;6857;53.484;10.216;2023-06-22T11:16:28;4.40;;;4.00;;
13571;SDS011;6857;53.484;10.216;2023-06-22T11:18:54;5.72;;;3.95;;
13571;SDS011;6857;53.484;10.216;2023-06-22T11:21:20;5.05;;;3.70;;
13571;SDS011;6857;53.484;10.216;2023-06-22T11:23:46;4.43;;;3.83;;
13571;SDS011;6857;53.484;10.216;2023-06-22T11:26:12;4.53;;;3.88;;
13571;SDS011;6857;53.484;10.216;2023-06-22T11:28:38;4.78;;;3.58;;
13571;SDS011;6857;53.484;10.216;2023-06-22T11:31:04;5.38;;;3.78;;
13571;SDS011;6857;53.484;10.216;2023-06-22T11:33:31;5.07;;;4.00;;
13571;SDS011;6857;53.484;10.216;2023-06-22T11:35:57;4.40;;;4.00;;
13571;SDS011;6857;53.484;10.216;2023-06-22T11:38:25;4.53;;;4.13;;
13571;SDS011;6857;53.484;10.216;2023-06-22T11:40:50;4.93;;;4.43;;
13571;SDS011;6857;53.484;10.216;2023-06-22T11:43:16;4.97;;;4.10;;
13571;SDS011;6857;53.484;10.216;2023-06-22T11:45:42;5.47;;;4.10;;
13571;SDS011;6857;53.484;10.216;2023-06-22T11:48:09;4.82;;;4.35;;
13571;SDS011;6857;53.484;10.216;2023-06-22T11:50:34;5.60;;;4.50;;
13571;SDS011;6857;53.484;10.216;2023-06-22T11:53:01;7.57;;;4.38;;
13571;SDS011;6857;53.484;10.216;2023-06-22T11:55:28;6.70;;;4.60;;
13571;SDS011;6857;53.484;10.216;2023-06-22T11:57:54;4.78;;;4.38;;
13571;SDS011;6857;53.484;10.216;2023-06-22T12:00:21;4.95;;;4.30;;
13571;SDS011;6857;53.484;10.216;2023-06-22T12:02:49;6.78;;;5.65;;
13571;SDS011;6857;53.484;10.216;2023-06-22T12:05:16;5.63;;;4.68;;
13571;SDS011;6857;53.484;10.216;2023-06-22T12:07:42;6.35;;;4.35;;
13571;SDS011;6857;53.484;10.216;2023-06-22T12:10:08;5.38;;;4.50;;
13571;SDS011;6857;53.484;10.216;2023-06-22T12:12:34;6.50;;;4.82;;
13571;SDS011;6857;53.484;10.216;2023-06-22T12:15:03;5.32;;;4.40;;
13571;SDS011;6857;53.484;10.216;2023-06-22T12:17:29;9.48;;;4.95;;
13571;SDS011;6857;53.484;10.216;2023-06-22T12:19:55;5.72;;;4.55;;
13571;SDS011;6857;53.484;10.216;2023-06-22T12:22:21;5.35;;;4.78;;
13571;SDS011;6857;53.484;10.216;2023-06-22T12:24:49;5.93;;;4.90;;
13571;SDS011;6857;53.484;10.216;2023-06-22T12:27:15;7.78;;;5.10;;
13571;SDS011;6857;53.484;10.216;2023-06-22T12:29:43;4.55;;;4.00;;
13571;SDS011;6857;53.484;10.216;2023-06-22T12:32:08;5.57;;;5.00;;
13571;SDS011;6857;53.484;10.216;2023-06-22T12:34:34;6.68;;;5.35;;
13571;SDS011;6857;53.484;10.216;2023-06-22T12:37:00;9.07;;;4.63;;
13571;SDS011;6857;53.484;10.216;2023-06-22T12:39:27;8.57;;;4.68;;
13571;SDS011;6857;53.484;10.216;2023-06-22T12:41:53;5.05;;;4.63;;
13571;SDS011;6857;53.484;10.216;2023-06-22T12:44:18;6.90;;;4.97;;
13571;SDS011;6857;53.484;10.216;2023-06-22T12:46:44;5.40;;;4.90;;
13571;SDS011;6857;53.484;10.216;2023-06-22T12:49:10;5.18;;;4.68;;
13571;SDS011;6857;53.484;10.216;2023-06-22T12:51:39;6.60;;;4.70;;
13571;SDS011;6857;53.484;10.216;2023-06-22T12:54:10;5.47;;;4.97;;
13571;SDS011;6857;53.484;10.216;2023-06-22T12:56:36;6.82;;;4.55;;
13571;SDS011;6857;53.484;10.216;2023-06-22T12:59:03;5.70;;;5.13;;
13571;SDS011;6857;53.484;10.216;2023-06-22T13:01:29;6.10;;;5.03;;
13571;SDS011;6857;53.484;10.216;2023-06-22T13:03:58;5.38;;;4.88;;
13571;SDS011;6857;53.484;10.216;2023-06-22T13:06:24;8.20;;;5.65;;
13571;SDS011;6857;53.484;10.216;2023-06-22T13:08:50;7.35;;;5.72;;
13571;SDS011;6857;53.484;10.216;2023-06-22T13:11:16;7.18;;;5.53;;
13571;SDS011;6857;53.484;10.216;2023-06-22T13:13:43;5.40;;;4.90;;
13571;SDS011;6857;53.484;10.216;2023-06-22T13:16:09;5.88;;;5.28;;
13571;SDS011;6857;53.484;10.216;2023-06-22T13:18:35;5.35;;;4.85;;
13571;SDS011;6857;53.484;10.216;2023-06-22T13:21:04;7.07;;;4.57;;
13571;SDS011;6857;53.484;10.216;2023-06-22T13:23:30;6.35;;;5.22;;
13571;SDS011;6857;53.484;10.216;2023-06-22T13:25:57;5.03;;;4.50;;
13571;SDS011;6857;53.484;10.216;2023-06-22T13:28:23;5.93;;;4.82;;
13571;SDS011;6857;53.484;10.216;2023-06-22T13:30:49;6.47;;;5.28;;
13571;SDS011;6857;53.484;10.216;2023-06-22T13:33:15;5.40;;;4.90;;
13571;SDS011;6857;53.484;10.216;2023-06-22T13:35:42;6.53;;;5.63;;
13571;SDS011;6857;53.484;10.216;2023-06-22T13:38:11;8.10;;;6.00;;
13571;SDS011;6857;53.484;10.216;2023-06-22T13:40:37;19.63;;;11.80;;
13571;SDS011;6857;53.484;10.216;2023-06-22T13:43:04;6.15;;;5.53;;
13571;SDS011;6857;53.484;10.216;2023-06-22T13:45:30;7.00;;;5.03;;
13571;SDS011;6857;53.484;10.216;2023-06-22T13:47:56;9.90;;;7.78;;
13571;SDS011;6857;53.484;10.216;2023-06-22T13:50:22;5.55;;;4.95;;
13571;SDS011;6857;53.484;10.216;2023-06-22T13:52:48;5.80;;;4.93;;
13571;SDS011;6857;53.484;10.216;2023-06-22T13:55:14;5.95;;;5.30;;
13571;SDS011;6857;53.484;10.216;2023-06-22T13:57:40;6.32;;;5.03;;
13571;SDS011;6857;53.484;10.216;2023-06-22T14:00:06;5.78;;;5.20;;
13571;SDS011;6857;53.484;10.216;2023-06-22T14:02:37;5.80;;;4.88;;
13571;SDS011;6857;53.484;10.216;2023-06-22T14:05:04;6.65;;;5.32;;
13571;SDS011;6857;53.484;10.216;2023-06-22T14:07:31;7.72;;;6.00;;
13571;SDS011;6857;53.484;10.216;2023-06-22T14:09:57;5.53;;;4.65;;
13571;SDS011;6857;53.484;10.216;2023-06-22T14:12:23;6.25;;;5.32;;
13571;SDS011;6857;53.484;10.216;2023-06-22T14:14:49;5.30;;;4.80;;
13571;SDS011;6857;53.484;10.216;2023-06-22T14:17:15;5.15;;;4.65;;
13571;SDS011;6857;53.484;10.216;2023-06-22T14:19:41;5.35;;;4.85;;
13571;SDS011;6857;53.484;10.216;2023-06-22T14:22:07;9.13;;;7.25;;
13571;SDS011;6857;53.484;10.216;2023-06-22T14:24:33;6.05;;;5.30;;
13571;SDS011;6857;53.484;10.216;2023-06-22T14:26:59;6.72;;;5.03;;
13571;SDS011;6857;53.484;10.216;2023-06-22T14:29:27;7.25;;;5.10;;
13571;SDS011;6857;53.484;10.216;2023-06-22T14:31:53;6.07;;;5.15;;
13571;SDS011;6857;53.484;10.216;2023-06-22T14:34:19;6.22;;;5.43;;
13571;SDS011;6857;53.484;10.216;2023-06-22T14:36:45;5.40;;;4.85;;
13571;SDS011;6857;53.484;10.216;2023-06-22T14:39:11;5.20;;;4.70;;
13571;SDS011;6857;53.484;10.216;2023-06-22T14:41:37;5.88;;;4.43;;
13571;SDS011;6857;53.484;10.216;2023-06-22T14:44:03;5.47;;;4.97;;
13571;SDS011;6857;53.484;10.216;2023-06-22T14:46:29;5.30;;;4.80;;
13571;SDS011;6857;53.484;10.216;2023-06-22T14:48:55;4.85;;;4.45;;
13571;SDS011;6857;53.484;10.216;2023-06-22T14:51:21;5.57;;;4.88;;